sensor_id;sensor_type;location;lat;lon;timestamp;P1;durP1;ratioP1;P2;durP2;ratioP2
22628;SDS011;11481;53.694;9.910;2023-03-29T00:01:38;6.50;;;3.70;;
22628;SDS011;11481;53.694;9.910;2023-03-29T00:04:08;9.38;;;3.50;;
22628;SDS011;11481;53.694;9.910;2023-03-29T00:06:35;7.88;;;3.13;;
22628;SDS011;11481;53.694;9.910;2023-03-29T00:09:02;9.00;;;3.63;;
22628;SDS011;11481;53.694;9.910;2023-03-29T00:11:30;5.45;;;2.95;;
22628;SDS011;11481;53.694;9.910;2023-03-29T00:13:57;8.65;;;3.80;;
22628;SDS011;11481;53.694;9.910;2023-03-29T00:16:24;9.57;;;3.45;;
22628;SDS011;11481;53.694;9.910;2023-03-29T00:18:51;11.05;;;4.28;;
22628;SDS011;11481;53.694;9.910;2023-03-29T00:21:18;5.90;;;3.22;;
22628;SDS011;11481;53.694;9.910;2023-03-29T00:23:45;7.93;;;3.10;;
22628;SDS011;11481;53.694;9.910;2023-03-29T00:26:11;8.27;;;3.17;;
22628;SDS011;11481;53.694;9.910;2023-03-29T00:28:38;6.38;;;3.15;;
22628;SDS011;11481;53.694;9.910;2023-03-29T00:31:09;5.90;;;3.20;;
22628;SDS011;11481;53.694;9.910;2023-03-29T00:33:38;6.18;;;3.10;;
22628;SDS011;11481;53.694;9.910;2023-03-29T00:36:06;8.00;;;3.05;;
22628;SDS011;11481;53.694;9.910;2023-03-29T00:38:34;8.35;;;2.92;;
22628;SDS011;11481;53.694;9.910;2023-03-29T00:41:01;5.13;;;2.30;;
22628;SDS011;11481;53.694;9.910;2023-03-29T00:43:29;5.70;;;2.45;;
22628;SDS011;11481;53.694;9.910;2023-03-29T00:45:56;7.57;;;2.22;;
22628;SDS011;11481;53.694;9.910;2023-03-29T00:48:24;6.45;;;2.22;;
22628;SDS011;11481;53.694;9.910;2023-03-29T00:50:56;8.75;;;3.10;;
22628;SDS011;11481;53.694;9.910;2023-03-29T00:56:08;5.70;;;2.60;;
22628;SDS011;11481;53.694;9.910;2023-03-29T00:58:50;7.97;;;2.70;;
22628;SDS011;11481;53.694;9.910;2023-03-29T01:01:24;7.00;;;2.65;;
22628;SDS011;11481;53.694;9.910;2023-03-29T01:04:09;4.82;;;2.50;;
22628;SDS011;11481;53.694;9.910;2023-03-29T01:06:59;5.03;;;2.65;;
22628;SDS011;11481;53.694;9.910;2023-03-29T01:09:32;5.60;;;2.83;;
22628;SDS011;11481;53.694;9.910;2023-03-29T01:12:04;5.82;;;3.08;;
22628;SDS011;11481;53.694;9.910;2023-03-29T01:14:41;4.32;;;2.33;;
22628;SDS011;11481;53.694;9.910;2023-03-29T01:17:10;6.32;;;2.53;;
22628;SDS011;11481;53.694;9.910;2023-03-29T01:19:39;5.07;;;2.15;;
22628;SDS011;11481;53.694;9.910;2023-03-29T01:22:18;6.03;;;2.78;;
22628;SDS011;11481;53.694;9.910;2023-03-29T01:25:03;5.70;;;2.53;;
22628;SDS011;11481;53.694;9.910;2023-03-29T01:30:13;4.65;;;2.80;;
22628;SDS011;11481;53.694;9.910;2023-03-29T01:32:52;6.78;;;2.28;;
22628;SDS011;11481;53.694;9.910;2023-03-29T01:35:33;5.80;;;2.58;;
22628;SDS011;11481;53.694;9.910;2023-03-29T01:38:10;6.20;;;2.03;;
22628;SDS011;11481;53.694;9.910;2023-03-29T01:40:40;6.57;;;2.75;;
22628;SDS011;11481;53.694;9.910;2023-03-29T01:43:14;5.50;;;2.28;;
22628;SDS011;11481;53.694;9.910;2023-03-29T01:50:59;5.20;;;2.50;;
22628;SDS011;11481;53.694;9.910;2023-03-29T01:53:43;6.03;;;2.30;;
22628;SDS011;11481;53.694;9.910;2023-03-29T01:56:17;3.28;;;1.92;;
22628;SDS011;11481;53.694;9.910;2023-03-29T01:58:49;6.80;;;2.45;;
22628;SDS011;11481;53.694;9.910;2023-03-29T02:01:23;4.72;;;2.38;;
22628;SDS011;11481;53.694;9.910;2023-03-29T02:03:57;9.63;;;1.90;;
22628;SDS011;11481;53.694;9.910;2023-03-29T02:06:28;5.50;;;2.03;;
22628;SDS011;11481;53.694;9.910;2023-03-29T02:08:57;9.13;;;2.90;;
22628;SDS011;11481;53.694;9.910;2023-03-29T02:11:24;7.22;;;2.28;;
22628;SDS011;11481;53.694;9.910;2023-03-29T02:13:55;7.40;;;2.72;;
22628;SDS011;11481;53.694;9.910;2023-03-29T02:16:22;7.25;;;2.88;;
22628;SDS011;11481;53.694;9.910;2023-03-29T02:18:49;5.85;;;2.67;;
22628;SDS011;11481;53.694;9.910;2023-03-29T02:21:23;7.95;;;2.40;;
22628;SDS011;11481;53.694;9.910;2023-03-29T02:23:50;5.75;;;2.40;;
22628;SDS011;11481;53.694;9.910;2023-03-29T02:26:20;8.32;;;2.50;;
22628;SDS011;11481;53.694;9.910;2023-03-29T02:28:47;5.00;;;2.47;;
22628;SDS011;11481;53.694;9.910;2023-03-29T02:31:16;6.10;;;2.45;;
22628;SDS011;11481;53.694;9.910;2023-03-29T02:34:06;6.97;;;2.55;;
22628;SDS011;11481;53.694;9.910;2023-03-29T02:39:15;5.70;;;2.40;;
22628;SDS011;11481;53.694;9.910;2023-03-29T02:41:44;7.03;;;2.95;;
22628;SDS011;11481;53.694;9.910;2023-03-29T02:44:15;7.75;;;2.47;;
22628;SDS011;11481;53.694;9.910;2023-03-29T02:46:52;6.15;;;2.33;;
22628;SDS011;11481;53.694;9.910;2023-03-29T02:49:28;8.88;;;2.60;;
22628;SDS011;11481;53.694;9.910;2023-03-29T02:51:56;4.93;;;2.53;;
22628;SDS011;11481;53.694;9.910;2023-03-29T02:54:29;5.00;;;2.03;;
22628;SDS011;11481;53.694;9.910;2023-03-29T02:56:58;5.72;;;2.67;;
22628;SDS011;11481;53.694;9.910;2023-03-29T02:59:27;10.73;;;3.22;;
22628;SDS011;11481;53.694;9.910;2023-03-29T03:01:55;7.03;;;3.00;;
22628;SDS011;11481;53.694;9.910;2023-03-29T03:04:23;4.75;;;2.33;;
22628;SDS011;11481;53.694;9.910;2023-03-29T03:06:51;12.13;;;3.72;;
22628;SDS011;11481;53.694;9.910;2023-03-29T03:09:18;4.57;;;2.40;;
22628;SDS011;11481;53.694;9.910;2023-03-29T03:11:45;4.75;;;2.55;;
22628;SDS011;11481;53.694;9.910;2023-03-29T03:14:11;7.05;;;3.40;;
22628;SDS011;11481;53.694;9.910;2023-03-29T03:16:38;6.32;;;2.97;;
22628;SDS011;11481;53.694;9.910;2023-03-29T03:19:05;6.43;;;2.70;;
22628;SDS011;11481;53.694;9.910;2023-03-29T03:21:32;4.18;;;2.58;;
22628;SDS011;11481;53.694;9.910;2023-03-29T03:24:00;7.07;;;2.80;;
22628;SDS011;11481;53.694;9.910;2023-03-29T03:26:27;7.80;;;3.03;;
22628;SDS011;11481;53.694;9.910;2023-03-29T03:28:56;11.20;;;2.72;;
22628;SDS011;11481;53.694;9.910;2023-03-29T03:31:24;4.63;;;2.40;;
22628;SDS011;11481;53.694;9.910;2023-03-29T03:33:51;4.68;;;2.33;;
22628;SDS011;11481;53.694;9.910;2023-03-29T03:36:19;8.77;;;2.55;;
22628;SDS011;11481;53.694;9.910;2023-03-29T03:38:51;9.77;;;2.85;;
22628;SDS011;11481;53.694;9.910;2023-03-29T03:41:18;10.80;;;2.33;;
22628;SDS011;11481;53.694;9.910;2023-03-29T03:43:45;6.55;;;2.45;;
22628;SDS011;11481;53.694;9.910;2023-03-29T03:46:14;6.50;;;2.50;;
22628;SDS011;11481;53.694;9.910;2023-03-29T03:48:42;5.65;;;2.58;;
22628;SDS011;11481;53.694;9.910;2023-03-29T03:51:10;5.75;;;2.17;;
22628;SDS011;11481;53.694;9.910;2023-03-29T03:53:37;4.13;;;1.75;;
22628;SDS011;11481;53.694;9.910;2023-03-29T03:56:04;5.20;;;2.00;;
22628;SDS011;11481;53.694;9.910;2023-03-29T03:58:37;7.70;;;2.25;;
22628;SDS011;11481;53.694;9.910;2023-03-29T04:01:04;5.47;;;2.38;;
22628;SDS011;11481;53.694;9.910;2023-03-29T04:03:33;3.47;;;1.75;;
22628;SDS011;11481;53.694;9.910;2023-03-29T04:06:00;5.75;;;2.42;;
22628;SDS011;11481;53.694;9.910;2023-03-29T04:08:28;6.15;;;1.92;;
22628;SDS011;11481;53.694;9.910;2023-03-29T04:10:55;5.97;;;2.25;;
22628;SDS011;11481;53.694;9.910;2023-03-29T04:13:25;4.32;;;2.08;;
22628;SDS011;11481;53.694;9.910;2023-03-29T04:15:53;6.75;;;2.28;;
22628;SDS011;11481;53.694;9.910;2023-03-29T04:18:23;4.53;;;2.17;;
22628;SDS011;11481;53.694;9.910;2023-03-29T04:20:51;5.65;;;1.90;;
22628;SDS011;11481;53.694;9.910;2023-03-29T04:23:18;4.50;;;2.33;;
22628;SDS011;11481;53.694;9.910;2023-03-29T04:25:45;8.30;;;2.28;;
22628;SDS011;11481;53.694;9.910;2023-03-29T04:28:12;4.32;;;2.03;;
22628;SDS011;11481;53.694;9.910;2023-03-29T04:30:39;5.93;;;2.35;;
22628;SDS011;11481;53.694;9.910;2023-03-29T04:33:06;4.22;;;2.10;;
22628;SDS011;11481;53.694;9.910;2023-03-29T04:35:34;7.63;;;2.22;;
22628;SDS011;11481;53.694;9.910;2023-03-29T04:38:01;4.78;;;2.40;;
22628;SDS011;11481;53.694;9.910;2023-03-29T04:40:29;9.65;;;2.53;;
22628;SDS011;11481;53.694;9.910;2023-03-29T04:42:56;5.90;;;2.30;;
22628;SDS011;11481;53.694;9.910;2023-03-29T04:45:23;8.77;;;2.72;;
22628;SDS011;11481;53.694;9.910;2023-03-29T04:47:55;5.05;;;2.25;;
22628;SDS011;11481;53.694;9.910;2023-03-29T04:50:22;8.63;;;3.25;;
22628;SDS011;11481;53.694;9.910;2023-03-29T04:52:49;8.18;;;3.03;;
22628;SDS011;11481;53.694;9.910;2023-03-29T04:55:16;5.00;;;2.38;;
22628;SDS011;11481;53.694;9.910;2023-03-29T04:57:43;8.07;;;2.47;;
22628;SDS011;11481;53.694;9.910;2023-03-29T05:00:10;7.72;;;2.88;;
22628;SDS011;11481;53.694;9.910;2023-03-29T05:02:41;5.90;;;2.90;;
22628;SDS011;11481;53.694;9.910;2023-03-29T05:05:09;7.10;;;3.33;;
22628;SDS011;11481;53.694;9.910;2023-03-29T05:07:36;8.32;;;2.47;;
22628;SDS011;11481;53.694;9.910;2023-03-29T05:10:04;8.60;;;2.97;;
22628;SDS011;11481;53.694;9.910;2023-03-29T05:12:34;9.45;;;3.40;;
22628;SDS011;11481;53.694;9.910;2023-03-29T05:15:02;8.15;;;3.40;;
22628;SDS011;11481;53.694;9.910;2023-03-29T05:17:30;9.15;;;3.53;;
22628;SDS011;11481;53.694;9.910;2023-03-29T05:19:58;9.18;;;3.78;;
22628;SDS011;11481;53.694;9.910;2023-03-29T05:22:25;8.52;;;3.33;;
22628;SDS011;11481;53.694;9.910;2023-03-29T05:24:52;8.25;;;4.20;;
22628;SDS011;11481;53.694;9.910;2023-03-29T05:27:19;9.63;;;3.30;;
22628;SDS011;11481;53.694;9.910;2023-03-29T05:29:48;12.65;;;4.45;;
22628;SDS011;11481;53.694;9.910;2023-03-29T05:32:14;11.43;;;4.20;;
22628;SDS011;11481;53.694;9.910;2023-03-29T05:34:43;9.13;;;4.22;;
22628;SDS011;11481;53.694;9.910;2023-03-29T05:37:10;12.45;;;3.75;;
22628;SDS011;11481;53.694;9.910;2023-03-29T05:39:40;12.13;;;4.57;;
22628;SDS011;11481;53.694;9.910;2023-03-29T05:42:08;12.13;;;4.60;;
22628;SDS011;11481;53.694;9.910;2023-03-29T05:44:38;10.57;;;5.15;;
22628;SDS011;11481;53.694;9.910;2023-03-29T05:47:05;13.32;;;4.60;;
22628;SDS011;11481;53.694;9.910;2023-03-29T05:49:32;8.57;;;4.28;;
22628;SDS011;11481;53.694;9.910;2023-03-29T05:52:01;11.50;;;5.28;;
22628;SDS011;11481;53.694;9.910;2023-03-29T05:54:29;11.50;;;5.30;;
22628;SDS011;11481;53.694;9.910;2023-03-29T05:56:56;9.32;;;4.40;;
22628;SDS011;11481;53.694;9.910;2023-03-29T05:59:23;15.77;;;5.70;;
22628;SDS011;11481;53.694;9.910;2023-03-29T06:01:49;11.60;;;5.05;;
22628;SDS011;11481;53.694;9.910;2023-03-29T06:04:18;13.30;;;5.18;;
22628;SDS011;11481;53.694;9.910;2023-03-29T06:06:45;9.57;;;4.60;;
22628;SDS011;11481;53.694;9.910;2023-03-29T06:09:15;11.40;;;5.07;;
22628;SDS011;11481;53.694;9.910;2023-03-29T06:11:42;12.05;;;5.28;;
22628;SDS011;11481;53.694;9.910;2023-03-29T06:14:10;11.02;;;4.72;;
22628;SDS011;11481;53.694;9.910;2023-03-29T06:16:39;10.73;;;4.75;;
22628;SDS011;11481;53.694;9.910;2023-03-29T06:19:08;13.45;;;5.57;;
22628;SDS011;11481;53.694;9.910;2023-03-29T06:21:34;10.38;;;4.80;;
22628;SDS011;11481;53.694;9.910;2023-03-29T06:24:03;14.73;;;6.85;;
22628;SDS011;11481;53.694;9.910;2023-03-29T06:26:31;11.95;;;5.43;;
22628;SDS011;11481;53.694;9.910;2023-03-29T06:29:01;12.60;;;5.38;;
22628;SDS011;11481;53.694;9.910;2023-03-29T06:31:29;11.57;;;5.40;;
22628;SDS011;11481;53.694;9.910;2023-03-29T06:33:58;13.82;;;5.57;;
22628;SDS011;11481;53.694;9.910;2023-03-29T06:36:26;10.18;;;4.72;;
22628;SDS011;11481;53.694;9.910;2023-03-29T06:38:53;12.15;;;5.38;;
22628;SDS011;11481;53.694;9.910;2023-03-29T06:41:20;11.30;;;5.15;;
22628;SDS011;11481;53.694;9.910;2023-03-29T06:43:47;11.35;;;4.40;;
22628;SDS011;11481;53.694;9.910;2023-03-29T06:46:14;15.05;;;5.60;;
22628;SDS011;11481;53.694;9.910;2023-03-29T06:48:42;10.30;;;4.97;;
22628;SDS011;11481;53.694;9.910;2023-03-29T06:51:09;11.20;;;4.43;;
22628;SDS011;11481;53.694;9.910;2023-03-29T06:53:36;10.45;;;4.57;;
22628;SDS011;11481;53.694;9.910;2023-03-29T06:56:05;10.63;;;4.30;;
22628;SDS011;11481;53.694;9.910;2023-03-29T06:58:34;10.90;;;4.72;;
22628;SDS011;11481;53.694;9.910;2023-03-29T07:01:01;10.02;;;4.15;;
22628;SDS011;11481;53.694;9.910;2023-03-29T07:03:29;19.63;;;4.50;;
22628;SDS011;11481;53.694;9.910;2023-03-29T07:06:00;12.77;;;4.53;;
22628;SDS011;11481;53.694;9.910;2023-03-29T07:08:29;10.23;;;4.97;;
22628;SDS011;11481;53.694;9.910;2023-03-29T07:10:58;9.25;;;3.97;;
22628;SDS011;11481;53.694;9.910;2023-03-29T07:13:26;12.18;;;4.50;;
22628;SDS011;11481;53.694;9.910;2023-03-29T07:15:53;11.02;;;5.07;;
22628;SDS011;11481;53.694;9.910;2023-03-29T07:18:20;10.68;;;4.05;;
22628;SDS011;11481;53.694;9.910;2023-03-29T07:20:47;10.15;;;3.85;;
22628;SDS011;11481;53.694;9.910;2023-03-29T07:23:14;10.30;;;4.38;;
22628;SDS011;11481;53.694;9.910;2023-03-29T07:25:41;10.27;;;4.72;;
22628;SDS011;11481;53.694;9.910;2023-03-29T07:28:10;11.18;;;4.07;;
22628;SDS011;11481;53.694;9.910;2023-03-29T07:30:36;10.40;;;4.57;;
22628;SDS011;11481;53.694;9.910;2023-03-29T07:33:03;11.90;;;4.18;;
22628;SDS011;11481;53.694;9.910;2023-03-29T07:35:30;9.15;;;4.05;;
22628;SDS011;11481;53.694;9.910;2023-03-29T07:37:58;11.25;;;4.35;;
22628;SDS011;11481;53.694;9.910;2023-03-29T07:40:24;9.10;;;4.50;;
22628;SDS011;11481;53.694;9.910;2023-03-29T07:42:54;12.43;;;4.30;;
22628;SDS011;11481;53.694;9.910;2023-03-29T07:45:23;8.75;;;3.95;;
22628;SDS011;11481;53.694;9.910;2023-03-29T07:47:57;11.30;;;5.00;;
22628;SDS011;11481;53.694;9.910;2023-03-29T07:50:25;9.23;;;4.10;;
22628;SDS011;11481;53.694;9.910;2023-03-29T07:52:52;8.38;;;4.00;;
22628;SDS011;11481;53.694;9.910;2023-03-29T07:55:20;10.32;;;3.92;;
22628;SDS011;11481;53.694;9.910;2023-03-29T07:57:51;8.18;;;4.00;;
22628;SDS011;11481;53.694;9.910;2023-03-29T08:00:20;14.20;;;4.55;;
22628;SDS011;11481;53.694;9.910;2023-03-29T08:02:48;6.70;;;3.65;;
22628;SDS011;11481;53.694;9.910;2023-03-29T08:05:18;10.13;;;4.25;;
22628;SDS011;11481;53.694;9.910;2023-03-29T08:08:05;7.55;;;3.05;;
22628;SDS011;11481;53.694;9.910;2023-03-29T08:10:35;8.43;;;3.63;;
22628;SDS011;11481;53.694;9.910;2023-03-29T08:13:04;6.75;;;3.22;;
22628;SDS011;11481;53.694;9.910;2023-03-29T08:15:34;9.00;;;3.42;;
22628;SDS011;11481;53.694;9.910;2023-03-29T08:18:05;10.57;;;4.15;;
22628;SDS011;11481;53.694;9.910;2023-03-29T08:20:33;8.98;;;3.70;;
22628;SDS011;11481;53.694;9.910;2023-03-29T08:23:01;8.00;;;3.22;;
22628;SDS011;11481;53.694;9.910;2023-03-29T08:25:28;7.65;;;3.70;;
22628;SDS011;11481;53.694;9.910;2023-03-29T08:27:55;7.28;;;3.22;;
22628;SDS011;11481;53.694;9.910;2023-03-29T08:30:22;7.53;;;3.35;;
22628;SDS011;11481;53.694;9.910;2023-03-29T08:32:49;9.25;;;3.60;;
22628;SDS011;11481;53.694;9.910;2023-03-29T08:35:20;7.65;;;3.78;;
22628;SDS011;11481;53.694;9.910;2023-03-29T08:37:47;8.73;;;3.45;;
22628;SDS011;11481;53.694;9.910;2023-03-29T08:40:18;5.60;;;3.25;;
22628;SDS011;11481;53.694;9.910;2023-03-29T08:43:11;11.75;;;3.67;;
22628;SDS011;11481;53.694;9.910;2023-03-29T08:48:49;8.32;;;3.60;;
22628;SDS011;11481;53.694;9.910;2023-03-29T08:51:26;6.50;;;3.22;;
22628;SDS011;11481;53.694;9.910;2023-03-29T08:54:06;7.03;;;3.25;;
22628;SDS011;11481;53.694;9.910;2023-03-29T08:56:42;8.23;;;3.55;;
22628;SDS011;11481;53.694;9.910;2023-03-29T08:59:16;8.30;;;3.67;;
22628;SDS011;11481;53.694;9.910;2023-03-29T09:01:47;14.70;;;3.58;;
22628;SDS011;11481;53.694;9.910;2023-03-29T09:04:19;7.43;;;3.38;;
22628;SDS011;11481;53.694;9.910;2023-03-29T09:06:50;8.55;;;3.20;;
22628;SDS011;11481;53.694;9.910;2023-03-29T09:09:21;12.07;;;3.70;;
22628;SDS011;11481;53.694;9.910;2023-03-29T09:12:06;8.95;;;3.03;;
22628;SDS011;11481;53.694;9.910;2023-03-29T09:20:36;8.23;;;3.50;;
22628;SDS011;11481;53.694;9.910;2023-03-29T09:31:54;6.25;;;3.05;;
22628;SDS011;11481;53.694;9.910;2023-03-29T09:34:22;8.70;;;3.55;;
22628;SDS011;11481;53.694;9.910;2023-03-29T09:37:17;13.38;;;4.07;;
22628;SDS011;11481;53.694;9.910;2023-03-29T09:39:50;14.50;;;4.03;;
22628;SDS011;11481;53.694;9.910;2023-03-29T09:42:18;6.30;;;3.20;;
22628;SDS011;11481;53.694;9.910;2023-03-29T09:44:50;8.48;;;3.78;;
22628;SDS011;11481;53.694;9.910;2023-03-29T09:47:26;12.45;;;4.32;;
22628;SDS011;11481;53.694;9.910;2023-03-29T09:50:17;11.43;;;4.22;;
22628;SDS011;11481;53.694;9.910;2023-03-29T09:53:14;5.82;;;3.33;;
22628;SDS011;11481;53.694;9.910;2023-03-29T09:55:42;7.07;;;3.47;;
22628;SDS011;11481;53.694;9.910;2023-03-29T09:58:16;7.28;;;3.20;;
22628;SDS011;11481;53.694;9.910;2023-03-29T10:00:50;6.53;;;3.28;;
22628;SDS011;11481;53.694;9.910;2023-03-29T10:03:18;7.85;;;3.50;;
22628;SDS011;11481;53.694;9.910;2023-03-29T10:05:48;8.05;;;4.05;;
22628;SDS011;11481;53.694;9.910;2023-03-29T10:08:20;8.40;;;3.30;;
22628;SDS011;11481;53.694;9.910;2023-03-29T10:10:52;8.68;;;3.92;;
22628;SDS011;11481;53.694;9.910;2023-03-29T10:13:25;7.50;;;4.05;;
22628;SDS011;11481;53.694;9.910;2023-03-29T10:15:56;10.43;;;3.97;;
22628;SDS011;11481;53.694;9.910;2023-03-29T10:18:40;7.57;;;3.85;;
22628;SDS011;11481;53.694;9.910;2023-03-29T10:21:10;7.32;;;3.47;;
22628;SDS011;11481;53.694;9.910;2023-03-29T10:23:40;10.05;;;4.13;;
22628;SDS011;11481;53.694;9.910;2023-03-29T10:26:51;9.80;;;3.47;;
22628;SDS011;11481;53.694;9.910;2023-03-29T10:28:58;6.85;;;3.42;;
22628;SDS011;11481;53.694;9.910;2023-03-29T10:31:30;6.93;;;3.83;;
22628;SDS011;11481;53.694;9.910;2023-03-29T10:34:03;9.98;;;4.32;;
22628;SDS011;11481;53.694;9.910;2023-03-29T10:36:31;8.57;;;4.15;;
22628;SDS011;11481;53.694;9.910;2023-03-29T10:38:59;9.85;;;3.95;;
22628;SDS011;11481;53.694;9.910;2023-03-29T10:41:32;7.88;;;3.60;;
22628;SDS011;11481;53.694;9.910;2023-03-29T10:44:00;10.88;;;4.30;;
22628;SDS011;11481;53.694;9.910;2023-03-29T10:46:32;8.63;;;3.70;;
22628;SDS011;11481;53.694;9.910;2023-03-29T10:49:14;8.82;;;4.00;;
22628;SDS011;11481;53.694;9.910;2023-03-29T10:51:49;10.10;;;4.60;;
22628;SDS011;11481;53.694;9.910;2023-03-29T10:54:18;11.40;;;4.05;;
22628;SDS011;11481;53.694;9.910;2023-03-29T10:56:56;10.15;;;4.13;;
22628;SDS011;11481;53.694;9.910;2023-03-29T10:59:30;8.45;;;4.07;;
22628;SDS011;11481;53.694;9.910;2023-03-29T11:07:30;10.65;;;4.90;;
22628;SDS011;11481;53.694;9.910;2023-03-29T11:10:26;8.50;;;4.38;;
22628;SDS011;11481;53.694;9.910;2023-03-29T11:16:04;8.15;;;4.45;;
22628;SDS011;11481;53.694;9.910;2023-03-29T11:24:12;11.13;;;4.47;;
22628;SDS011;11481;53.694;9.910;2023-03-29T11:26:57;10.75;;;4.35;;
22628;SDS011;11481;53.694;9.910;2023-03-29T11:32:33;10.60;;;4.82;;
22628;SDS011;11481;53.694;9.910;2023-03-29T11:35:21;13.18;;;4.60;;
22628;SDS011;11481;53.694;9.910;2023-03-29T11:38:04;10.18;;;4.05;;
22628;SDS011;11481;53.694;9.910;2023-03-29T11:43:29;12.60;;;4.72;;
22628;SDS011;11481;53.694;9.910;2023-03-29T11:46:11;13.10;;;4.70;;
22628;SDS011;11481;53.694;9.910;2023-03-29T11:51:38;10.93;;;5.20;;
22628;SDS011;11481;53.694;9.910;2023-03-29T11:54:12;9.95;;;5.40;;
22628;SDS011;11481;53.694;9.910;2023-03-29T11:56:43;11.02;;;5.00;;
22628;SDS011;11481;53.694;9.910;2023-03-29T11:59:20;10.68;;;4.85;;
22628;SDS011;11481;53.694;9.910;2023-03-29T12:01:55;11.98;;;5.30;;
22628;SDS011;11481;53.694;9.910;2023-03-29T12:04:41;15.23;;;5.68;;
22628;SDS011;11481;53.694;9.910;2023-03-29T12:10:02;11.95;;;5.68;;
22628;SDS011;11481;53.694;9.910;2023-03-29T12:12:40;13.82;;;5.90;;
22628;SDS011;11481;53.694;9.910;2023-03-29T12:20:26;14.15;;;6.50;;
22628;SDS011;11481;53.694;9.910;2023-03-29T12:22:57;13.25;;;6.00;;
22628;SDS011;11481;53.694;9.910;2023-03-29T12:25:29;13.35;;;5.93;;
22628;SDS011;11481;53.694;9.910;2023-03-29T12:28:06;14.20;;;7.05;;
22628;SDS011;11481;53.694;9.910;2023-03-29T12:30:51;14.85;;;6.55;;
22628;SDS011;11481;53.694;9.910;2023-03-29T12:33:37;12.30;;;6.55;;
22628;SDS011;11481;53.694;9.910;2023-03-29T12:36:38;21.75;;;6.88;;
22628;SDS011;11481;53.694;9.910;2023-03-29T12:39:17;12.93;;;5.53;;
22628;SDS011;11481;53.694;9.910;2023-03-29T12:41:46;11.77;;;5.85;;
22628;SDS011;11481;53.694;9.910;2023-03-29T12:44:21;13.43;;;6.55;;
22628;SDS011;11481;53.694;9.910;2023-03-29T12:46:57;17.42;;;7.38;;
22628;SDS011;11481;53.694;9.910;2023-03-29T12:49:34;16.05;;;6.93;;
22628;SDS011;11481;53.694;9.910;2023-03-29T12:52:20;12.23;;;6.40;;
22628;SDS011;11481;53.694;9.910;2023-03-29T12:54:52;14.43;;;6.85;;
22628;SDS011;11481;53.694;9.910;2023-03-29T12:57:25;17.60;;;8.27;;
22628;SDS011;11481;53.694;9.910;2023-03-29T13:00:10;15.60;;;7.40;;
22628;SDS011;11481;53.694;9.910;2023-03-29T13:02:57;15.23;;;7.03;;
22628;SDS011;11481;53.694;9.910;2023-03-29T13:05:44;15.50;;;7.15;;
22628;SDS011;11481;53.694;9.910;2023-03-29T13:08:22;18.80;;;7.47;;
22628;SDS011;11481;53.694;9.910;2023-03-29T13:10:53;14.02;;;7.78;;
22628;SDS011;11481;53.694;9.910;2023-03-29T13:13:23;17.05;;;7.93;;
22628;SDS011;11481;53.694;9.910;2023-03-29T13:15:54;17.35;;;8.27;;
22628;SDS011;11481;53.694;9.910;2023-03-29T13:20:55;17.73;;;7.90;;
22628;SDS011;11481;53.694;9.910;2023-03-29T13:29:55;10.75;;;5.70;;
22628;SDS011;11481;53.694;9.910;2023-03-29T13:36:06;13.00;;;6.25;;
22628;SDS011;11481;53.694;9.910;2023-03-29T13:38:45;12.75;;;7.40;;
22628;SDS011;11481;53.694;9.910;2023-03-29T13:41:25;16.17;;;6.78;;
22628;SDS011;11481;53.694;9.910;2023-03-29T13:43:57;17.38;;;6.97;;
22628;SDS011;11481;53.694;9.910;2023-03-29T13:46:35;12.60;;;7.05;;
22628;SDS011;11481;53.694;9.910;2023-03-29T13:49:04;13.82;;;7.15;;
22628;SDS011;11481;53.694;9.910;2023-03-29T13:57:02;14.63;;;6.70;;
22628;SDS011;11481;53.694;9.910;2023-03-29T13:59:37;13.63;;;7.18;;
22628;SDS011;11481;53.694;9.910;2023-03-29T14:02:36;15.73;;;8.30;;
22628;SDS011;11481;53.694;9.910;2023-03-29T14:05:12;15.88;;;8.38;;
22628;SDS011;11481;53.694;9.910;2023-03-29T14:07:44;13.32;;;7.28;;
22628;SDS011;11481;53.694;9.910;2023-03-29T14:10:17;12.45;;;6.65;;
22628;SDS011;11481;53.694;9.910;2023-03-29T14:12:47;14.38;;;7.53;;
22628;SDS011;11481;53.694;9.910;2023-03-29T14:15:24;12.43;;;6.72;;
22628;SDS011;11481;53.694;9.910;2023-03-29T14:18:02;15.63;;;6.40;;
22628;SDS011;11481;53.694;9.910;2023-03-29T14:20:30;13.07;;;6.63;;
22628;SDS011;11481;53.694;9.910;2023-03-29T14:22:58;11.13;;;5.78;;
22628;SDS011;11481;53.694;9.910;2023-03-29T14:25:25;13.10;;;6.25;;
22628;SDS011;11481;53.694;9.910;2023-03-29T14:27:54;10.98;;;5.80;;
22628;SDS011;11481;53.694;9.910;2023-03-29T14:30:27;13.70;;;6.20;;
22628;SDS011;11481;53.694;9.910;2023-03-29T14:32:57;11.27;;;5.75;;
22628;SDS011;11481;53.694;9.910;2023-03-29T14:35:28;12.60;;;6.22;;
22628;SDS011;11481;53.694;9.910;2023-03-29T14:37:58;10.27;;;6.05;;
22628;SDS011;11481;53.694;9.910;2023-03-29T14:40:26;11.25;;;6.05;;
22628;SDS011;11481;53.694;9.910;2023-03-29T14:42:56;13.00;;;6.50;;
22628;SDS011;11481;53.694;9.910;2023-03-29T14:45:25;13.05;;;6.38;;
22628;SDS011;11481;53.694;9.910;2023-03-29T14:47:52;12.32;;;5.82;;
22628;SDS011;11481;53.694;9.910;2023-03-29T14:50:26;12.20;;;5.47;;
22628;SDS011;11481;53.694;9.910;2023-03-29T14:52:55;12.38;;;6.10;;
22628;SDS011;11481;53.694;9.910;2023-03-29T14:55:24;11.70;;;6.15;;
22628;SDS011;11481;53.694;9.910;2023-03-29T14:57:54;16.80;;;6.82;;
22628;SDS011;11481;53.694;9.910;2023-03-29T15:00:42;12.77;;;6.15;;
22628;SDS011;11481;53.694;9.910;2023-03-29T15:03:12;10.80;;;5.88;;
22628;SDS011;11481;53.694;9.910;2023-03-29T15:05:41;11.90;;;6.28;;
22628;SDS011;11481;53.694;9.910;2023-03-29T15:08:13;15.65;;;8.07;;
22628;SDS011;11481;53.694;9.910;2023-03-29T15:10:43;20.40;;;9.13;;
22628;SDS011;11481;53.694;9.910;2023-03-29T15:13:13;10.82;;;6.45;;
22628;SDS011;11481;53.694;9.910;2023-03-29T15:15:45;14.10;;;7.03;;
22628;SDS011;11481;53.694;9.910;2023-03-29T15:18:17;13.43;;;6.82;;
22628;SDS011;11481;53.694;9.910;2023-03-29T15:20:49;12.07;;;5.97;;
22628;SDS011;11481;53.694;9.910;2023-03-29T15:23:19;13.75;;;6.57;;
22628;SDS011;11481;53.694;9.910;2023-03-29T15:25:55;13.98;;;6.38;;
22628;SDS011;11481;53.694;9.910;2023-03-29T15:28:25;16.10;;;6.22;;
22628;SDS011;11481;53.694;9.910;2023-03-29T15:30:57;14.15;;;7.03;;
22628;SDS011;11481;53.694;9.910;2023-03-29T15:33:36;12.07;;;6.63;;
22628;SDS011;11481;53.694;9.910;2023-03-29T15:36:04;13.98;;;6.63;;
22628;SDS011;11481;53.694;9.910;2023-03-29T15:38:32;12.15;;;6.00;;
22628;SDS011;11481;53.694;9.910;2023-03-29T15:41:09;12.77;;;6.43;;
22628;SDS011;11481;53.694;9.910;2023-03-29T15:43:38;16.65;;;7.22;;
22628;SDS011;11481;53.694;9.910;2023-03-29T15:46:11;15.27;;;7.30;;
22628;SDS011;11481;53.694;9.910;2023-03-29T15:48:41;14.35;;;7.32;;
22628;SDS011;11481;53.694;9.910;2023-03-29T15:51:10;14.65;;;6.70;;
22628;SDS011;11481;53.694;9.910;2023-03-29T15:53:40;14.50;;;6.57;;
22628;SDS011;11481;53.694;9.910;2023-03-29T15:56:07;13.73;;;6.88;;
22628;SDS011;11481;53.694;9.910;2023-03-29T15:58:38;12.60;;;6.30;;
22628;SDS011;11481;53.694;9.910;2023-03-29T16:04:00;11.98;;;6.90;;
22628;SDS011;11481;53.694;9.910;2023-03-29T16:06:27;12.07;;;6.18;;
22628;SDS011;11481;53.694;9.910;2023-03-29T16:08:54;14.18;;;6.78;;
22628;SDS011;11481;53.694;9.910;2023-03-29T16:11:22;12.23;;;6.63;;
22628;SDS011;11481;53.694;9.910;2023-03-29T16:13:49;13.25;;;6.93;;
22628;SDS011;11481;53.694;9.910;2023-03-29T16:16:16;15.75;;;7.28;;
22628;SDS011;11481;53.694;9.910;2023-03-29T16:18:43;12.00;;;6.70;;
22628;SDS011;11481;53.694;9.910;2023-03-29T16:21:11;15.93;;;8.07;;
22628;SDS011;11481;53.694;9.910;2023-03-29T16:23:40;17.92;;;8.48;;
22628;SDS011;11481;53.694;9.910;2023-03-29T16:26:09;18.73;;;8.90;;
22628;SDS011;11481;53.694;9.910;2023-03-29T16:28:38;19.02;;;8.00;;